Time;durP1;ratioP1;P1;durP2;ratioP2;P2;SDS_P1;SDS_P2;PMS_P1;PMS_P2;Temp;Humidity;BMP_temperature;BMP_pressure;BME280_temperature;BME280_humidity;BME280_pressure;Samples;Min_cycle;Max_cycle;Signal;HPM_P1;HPM_P2
2022/09/11 00:00:51;;;;;;;0.30;0.30;;;;;;;;;;7381847;19;20146;-73
2022/09/11 00:03:18;;;;;;;0.30;0.30;;;;;;;;;;7376614;19;20129;-74
2022/09/11 00:05:44;;;;;;;0.30;0.30;;;;;;;;;;7378408;19;20158;-73
2022/09/11 00:08:11;;;;;;;0.20;0.20;;;;;;;;;;7380323;19;20125;-73
2022/09/11 00:10:39;;;;;;;0.30;0.30;;;;;;;;;;7374616;19;20632;-73
2022/09/11 00:13:19;;;;;;;0.30;0.30;;;;;;;;;;7380145;19;20482;-73
2022/09/11 00:15:47;;;;;;;0.30;0.30;;;;;;;;;;7376604;19;20125;-72
2022/09/11 00:18:16;;;;;;;0.30;0.30;;;;;;;;;;7372136;19;20424;-73
2022/09/11 00:20:48;;;;;;;0.20;0.20;;;;;;;;;;7374920;19;20128;-73
2022/09/11 00:23:16;;;;;;;0.30;0.30;;;;;;;;;;7373691;19;20133;-73
2022/09/11 00:25:42;;;;;;;1.95;1.63;;;;;;;;;;7372117;19;20130;-73
2022/09/11 00:28:12;;;;;;;0.30;0.30;;;;;;;;;;7365024;19;20179;-73
2022/09/11 00:30:37;;;;;;;0.30;0.30;;;;;;;;;;7376859;19;20144;-73
2022/09/11 00:33:03;;;;;;;0.30;0.30;;;;;;;;;;7378189;19;20678;-73
2022/09/11 00:35:29;;;;;;;0.30;0.30;;;;;;;;;;7378225;19;20137;-72
2022/09/11 00:37:54;;;;;;;0.30;0.30;;;;;;;;;;7375927;19;20131;-73
2022/09/11 00:40:20;;;;;;;0.30;0.30;;;;;;;;;;7380822;19;20128;-73
2022/09/11 00:42:51;;;;;;;0.30;0.30;;;;;;;;;;7377163;19;20105;-73
2022/09/11 00:45:24;;;;;;;0.40;0.40;;;;;;;;;;7378182;19;20666;-73
2022/09/11 00:47:51;;;;;;;0.30;0.30;;;;;;;;;;7375521;19;20134;-73
2022/09/11 00:50:19;;;;;;;0.30;0.30;;;;;;;;;;7376288;19;20447;-73
2022/09/11 00:52:52;;;;;;;0.30;0.30;;;;;;;;;;7376147;19;20157;-73
2022/09/11 00:55:20;;;;;;;0.30;0.30;;;;;;;;;;7379563;19;20125;-73
2022/09/11 00:57:53;;;;;;;0.30;0.30;;;;;;;;;;7374958;19;20113;-73
2022/09/11 01:00:18;;;;;;;0.30;0.30;;;;;;;;;;7383096;19;20120;-73
2022/09/11 01:02:47;;;;;;;0.30;0.30;;;;;;;;;;7383652;19;20121;-73
2022/09/11 01:05:12;;;;;;;0.30;0.30;;;;;;;;;;7380523;19;20129;-73
2022/09/11 01:07:39;;;;;;;0.30;0.30;;;;;;;;;;7375527;19;20433;-73
2022/09/11 01:10:05;;;;;;;0.30;0.30;;;;;;;;;;7376890;19;20125;-73
2022/09/11 01:12:35;;;;;;;0.30;0.30;;;;;;;;;;7380033;19;20129;-73
2022/09/11 01:15:07;;;;;;;0.30;0.30;;;;;;;;;;7384412;19;20113;-73
2022/09/11 01:17:45;;;;;;;0.30;0.30;;;;;;;;;;7383998;19;20159;-73
2022/09/11 01:20:29;;;;;;;0.30;0.30;;;;;;;;;;7379670;19;20116;-73
2022/09/11 01:23:04;;;;;;;0.30;0.30;;;;;;;;;;7375508;19;20133;-73
2022/09/11 01:25:29;;;;;;;0.30;0.30;;;;;;;;;;7378802;19;20132;-73
2022/09/11 01:27:56;;;;;;;0.20;0.20;;;;;;;;;;7379359;19;20125;-73
2022/09/11 01:30:23;;;;;;;0.30;0.30;;;;;;;;;;7374489;19;20121;-73
2022/09/11 01:32:54;;;;;;;0.30;0.30;;;;;;;;;;7374697;19;20481;-73
2022/09/11 01:35:26;;;;;;;0.30;0.30;;;;;;;;;;7375720;19;20117;-73
2022/09/11 01:37:53;;;;;;;0.30;0.30;;;;;;;;;;7376620;19;20595;-73
2022/09/11 01:40:54;;;;;;;0.30;0.30;;;;;;;;;;7374812;19;20133;-73
2022/09/11 01:43:25;;;;;;;0.30;0.30;;;;;;;;;;7376960;19;20622;-73
2022/09/11 01:45:51;;;;;;;0.30;0.30;;;;;;;;;;7374732;19;20479;-73
2022/09/11 01:48:20;;;;;;;0.20;0.20;;;;;;;;;;7376073;19;20157;-73
2022/09/11 01:50:46;;;;;;;0.30;0.30;;;;;;;;;;7378667;19;20145;-73
2022/09/11 01:53:13;;;;;;;0.28;0.28;;;;;;;;;;7373134;19;20748;-73
2022/09/11 01:55:42;;;;;;;0.30;0.30;;;;;;;;;;7377233;19;20177;-73
2022/09/11 01:58:16;;;;;;;0.30;0.30;;;;;;;;;;7372144;19;20166;-73
2022/09/11 02:00:44;;;;;;;0.30;0.30;;;;;;;;;;7376934;19;20569;-73
2022/09/11 02:03:21;;;;;;;0.30;0.30;;;;;;;;;;7376093;19;20125;-73
2022/09/11 02:05:59;;;;;;;0.30;0.30;;;;;;;;;;7373921;19;20118;-73
2022/09/11 02:08:33;;;;;;;0.30;0.30;;;;;;;;;;7376648;19;20105;-73
2022/09/11 02:11:05;;;;;;;0.30;0.30;;;;;;;;;;7371772;19;20109;-73
2022/09/11 02:13:36;;;;;;;0.30;0.30;;;;;;;;;;7373788;19;20154;-73
2022/09/11 02:16:12;;;;;;;0.30;0.30;;;;;;;;;;7371401;19;20130;-73
2022/09/11 02:18:46;;;;;;;0.30;0.30;;;;;;;;;;7375374;19;20121;-73
2022/09/11 02:21:11;;;;;;;0.30;0.30;;;;;;;;;;7374863;19;20112;-73
2022/09/11 02:23:37;;;;;;;0.30;0.30;;;;;;;;;;7374279;19;20129;-73
2022/09/11 02:26:04;;;;;;;0.30;0.30;;;;;;;;;;7375498;19;20121;-73
2022/09/11 02:28:29;;;;;;;0.30;0.30;;;;;;;;;;7371563;19;20582;-74
2022/09/11 02:30:55;;;;;;;0.30;0.30;;;;;;;;;;7372599;19;20113;-73
2022/09/11 02:33:30;;;;;;;0.30;0.30;;;;;;;;;;7374827;19;20459;-73
2022/09/11 02:36:06;;;;;;;0.30;0.30;;;;;;;;;;7372384;19;20124;-73
2022/09/11 02:38:59;;;;;;;0.30;0.30;;;;;;;;;;7374344;19;20109;-72
2022/09/11 02:41:29;;;;;;;0.30;0.30;;;;;;;;;;7374198;19;20121;-73
2022/09/11 02:44:07;;;;;;;0.30;0.30;;;;;;;;;;7371876;19;20132;-73
2022/09/11 02:46:44;;;;;;;0.30;0.30;;;;;;;;;;7374480;19;20109;-73
2022/09/11 02:49:40;;;;;;;0.30;0.30;;;;;;;;;;7377181;19;20518;-73
2022/09/11 02:52:25;;;;;;;0.30;0.30;;;;;;;;;;7373359;19;20181;-73
2022/09/11 02:55:19;;;;;;;0.40;0.40;;;;;;;;;;7373010;19;20137;-73
2022/09/11 02:58:01;;;;;;;0.30;0.30;;;;;;;;;;7375313;19;20109;-73
2022/09/11 04:47:51;;;;;;;0.30;0.30;;;;;;;;;;7409848;19;20140;-73
2022/09/11 04:50:17;;;;;;;0.30;0.30;;;;;;;;;;7408626;19;20149;-73
2022/09/11 04:52:43;;;;;;;0.30;0.30;;;;;;;;;;7404393;19;20124;-73
2022/09/11 04:55:09;;;;;;;0.30;0.30;;;;;;;;;;7396038;19;20125;-73
2022/09/11 04:57:34;;;;;;;0.30;0.30;;;;;;;;;;7385198;19;20121;-73
2022/09/11 04:59:59;;;;;;;0.30;0.30;;;;;;;;;;7384150;19;20583;-74
2022/09/11 05:02:24;;;;;;;0.30;0.30;;;;;;;;;;7385178;19;20109;-73
2022/09/11 05:08:12;;;;;;;0.30;0.30;;;;;;;;;;7378702;19;20128;-73
2022/09/11 05:10:37;;;;;;;0.30;0.30;;;;;;;;;;7384145;19;20595;-73
2022/09/11 05:13:03;;;;;;;0.30;0.30;;;;;;;;;;7385574;19;20626;-73
2022/09/11 05:15:30;;;;;;;0.30;0.30;;;;;;;;;;7382541;19;20411;-74
2022/09/11 05:17:56;;;;;;;0.30;0.30;;;;;;;;;;7384203;19;20582;-74
2022/09/11 05:20:21;;;;;;;0.30;0.30;;;;;;;;;;7387920;19;20105;-73
2022/09/11 05:22:46;;;;;;;0.30;0.30;;;;;;;;;;7380470;19;20480;-73
2022/09/11 05:25:12;;;;;;;0.30;0.30;;;;;;;;;;7379867;19;20124;-73
2022/09/11 05:27:37;;;;;;;0.30;0.30;;;;;;;;;;7378030;19;20121;-73
2022/09/11 05:30:03;;;;;;;0.30;0.30;;;;;;;;;;7381129;19;20650;-73
2022/09/11 05:32:29;;;;;;;0.30;0.30;;;;;;;;;;7374972;19;20441;-73
2022/09/11 05:34:54;;;;;;;0.30;0.30;;;;;;;;;;7372477;19;20172;-74
2022/09/11 05:37:19;;;;;;;0.30;0.30;;;;;;;;;;7377281;19;20451;-74
2022/09/11 05:39:44;;;;;;;0.30;0.30;;;;;;;;;;7387206;19;20568;-73
2022/09/11 05:42:10;;;;;;;0.30;0.30;;;;;;;;;;7380268;19;20140;-73
2022/09/11 05:44:36;;;;;;;0.30;0.30;;;;;;;;;;7381883;19;20501;-74
2022/09/11 05:47:01;;;;;;;0.30;0.30;;;;;;;;;;7381317;19;20152;-73
2022/09/11 05:49:26;;;;;;;0.30;0.30;;;;;;;;;;7379466;19;20120;-73
2022/09/11 05:51:51;;;;;;;0.30;0.30;;;;;;;;;;7376688;19;20492;-73
2022/09/11 05:54:17;;;;;;;0.30;0.30;;;;;;;;;;7377928;19;20149;-74
2022/09/11 05:56:42;;;;;;;0.30;0.30;;;;;;;;;;7386634;19;20113;-73
2022/09/11 05:59:14;;;;;;;0.30;0.30;;;;;;;;;;7381081;19;20554;-73
2022/09/11 06:01:42;;;;;;;0.30;0.30;;;;;;;;;;7380697;19;20177;-73
2022/09/11 06:04:11;;;;;;;0.30;0.30;;;;;;;;;;7379528;19;20130;-73
2022/09/11 06:06:37;;;;;;;0.30;0.30;;;;;;;;;;7382320;19;20518;-73
2022/09/11 06:09:03;;;;;;;0.30;0.30;;;;;;;;;;7379664;19;20105;-73
2022/09/11 06:11:29;;;;;;;0.30;0.30;;;;;;;;;;7379868;19;20136;-73
2022/09/11 06:13:55;;;;;;;0.30;0.30;;;;;;;;;;7371237;19;20214;-73
2022/09/11 06:16:22;;;;;;;0.30;0.30;;;;;;;;;;7380428;19;20129;-73
2022/09/11 06:18:50;;;;;;;0.30;0.30;;;;;;;;;;7371180;19;20974;-73
2022/09/11 06:21:20;;;;;;;0.30;0.30;;;;;;;;;;7373666;19;20146;-74
2022/09/11 06:23:47;;;;;;;0.30;0.30;;;;;;;;;;7380308;19;20121;-74
2022/09/11 06:26:14;;;;;;;0.30;0.30;;;;;;;;;;7380441;19;20144;-73
2022/09/11 06:28:40;;;;;;;0.30;0.30;;;;;;;;;;7382048;19;20106;-73
2022/09/11 06:31:08;;;;;;;0.30;0.30;;;;;;;;;;7382028;19;20461;-73
2022/09/11 06:33:35;;;;;;;0.30;0.30;;;;;;;;;;7380049;19;20153;-73
2022/09/11 06:36:02;;;;;;;0.30;0.30;;;;;;;;;;7381995;19;20149;-73
2022/09/11 06:38:28;;;;;;;0.60;0.60;;;;;;;;;;7383207;19;20151;-74
2022/09/11 06:40:54;;;;;;;0.30;0.30;;;;;;;;;;7382716;19;20146;-74
2022/09/11 06:43:22;;;;;;;0.30;0.30;;;;;;;;;;7374068;19;20429;-73
2022/09/11 06:45:48;;;;;;;0.30;0.30;;;;;;;;;;7377513;19;20143;-76
2022/09/11 06:48:15;;;;;;;0.30;0.30;;;;;;;;;;7377348;19;20097;-73
2022/09/11 06:50:40;;;;;;;0.30;0.30;;;;;;;;;;7377513;19;20121;-72
2022/09/11 06:53:06;;;;;;;0.40;0.40;;;;;;;;;;7379167;19;20213;-73
2022/09/11 06:55:32;;;;;;;0.43;0.43;;;;;;;;;;7385874;19;20150;-73
2022/09/11 06:57:58;;;;;;;0.30;0.30;;;;;;;;;;7379534;19;20475;-72
2022/09/11 07:00:24;;;;;;;0.30;0.30;;;;;;;;;;7375390;19;20159;-71
2022/09/11 07:02:51;;;;;;;0.30;0.30;;;;;;;;;;7371588;19;20151;-71
2022/09/11 07:05:17;;;;;;;0.30;0.30;;;;;;;;;;7374941;19;20125;-71
2022/09/11 07:07:42;;;;;;;0.30;0.30;;;;;;;;;;7370870;19;20161;-73
2022/09/11 07:10:09;;;;;;;0.30;0.30;;;;;;;;;;7373365;19;20121;-73
2022/09/11 07:12:37;;;;;;;0.30;0.30;;;;;;;;;;7382643;19;20148;-72
2022/09/11 07:15:05;;;;;;;0.30;0.30;;;;;;;;;;7378312;19;20141;-71
2022/09/11 07:17:30;;;;;;;0.30;0.30;;;;;;;;;;7373409;19;20121;-73
2022/09/11 07:19:55;;;;;;;0.30;0.30;;;;;;;;;;7382796;19;20121;-71
2022/09/11 07:22:21;;;;;;;0.30;0.30;;;;;;;;;;7380440;19;20109;-71
2022/09/11 07:24:46;;;;;;;0.30;0.30;;;;;;;;;;7379566;19;20662;-72
2022/09/11 07:27:13;;;;;;;0.30;0.30;;;;;;;;;;7377704;19;20126;-72
2022/09/11 07:29:38;;;;;;;0.30;0.30;;;;;;;;;;7379797;19;20137;-73
2022/09/11 07:32:03;;;;;;;0.30;0.30;;;;;;;;;;7383062;19;20646;-72
2022/09/11 07:34:29;;;;;;;0.55;0.55;;;;;;;;;;7377572;19;20602;-72
2022/09/11 07:36:54;;;;;;;0.30;0.30;;;;;;;;;;7381543;19;20129;-75
2022/09/11 07:39:19;;;;;;;0.30;0.30;;;;;;;;;;7383386;19;20125;-75
2022/09/11 07:41:44;;;;;;;0.30;0.30;;;;;;;;;;7381309;19;20579;-75
2022/09/11 07:44:10;;;;;;;0.30;0.30;;;;;;;;;;7381408;19;20157;-75
2022/09/11 07:46:39;;;;;;;0.30;0.30;;;;;;;;;;7378751;19;20137;-75
2022/09/11 07:49:06;;;;;;;0.30;0.30;;;;;;;;;;7379273;19;20119;-75
2022/09/11 07:51:33;;;;;;;0.30;0.30;;;;;;;;;;7382290;19;20113;-75
2022/09/11 07:54:00;;;;;;;0.30;0.30;;;;;;;;;;7377986;19;20246;-75
2022/09/11 07:56:26;;;;;;;0.30;0.30;;;;;;;;;;7379849;19;20125;-75
2022/09/11 07:58:53;;;;;;;0.30;0.30;;;;;;;;;;7380691;19;20113;-75
2022/09/11 08:01:21;;;;;;;0.30;0.30;;;;;;;;;;7379458;19;20121;-75
2022/09/11 08:03:48;;;;;;;0.30;0.30;;;;;;;;;;7380732;19;20160;-75
2022/09/11 08:06:16;;;;;;;0.30;0.30;;;;;;;;;;7379557;19;20120;-75
2022/09/11 08:08:42;;;;;;;0.30;0.30;;;;;;;;;;7381436;19;20204;-76
2022/09/11 08:11:16;;;;;;;0.30;0.30;;;;;;;;;;7377945;19;20584;-76
2022/09/11 08:13:42;;;;;;;0.30;0.30;;;;;;;;;;7379368;19;20172;-74
2022/09/11 08:16:07;;;;;;;0.25;0.25;;;;;;;;;;7374360;19;20165;-74
2022/09/11 08:18:34;;;;;;;0.30;0.30;;;;;;;;;;7368516;19;20125;-75
2022/09/11 08:21:08;;;;;;;0.30;0.30;;;;;;;;;;7379522;19;20106;-75
2022/09/11 08:23:34;;;;;;;0.30;0.30;;;;;;;;;;7379961;19;20545;-76
2022/09/11 08:26:07;;;;;;;0.30;0.30;;;;;;;;;;7379308;19;20818;-74
2022/09/11 08:28:37;;;;;;;0.30;0.30;;;;;;;;;;7377286;19;20122;-75
2022/09/11 08:31:03;;;;;;;0.30;0.30;;;;;;;;;;7383754;19;20651;-75
2022/09/11 08:33:29;;;;;;;0.30;0.30;;;;;;;;;;7382956;19;20160;-75
2022/09/11 08:35:57;;;;;;;0.30;0.30;;;;;;;;;;7388895;19;20132;-75
2022/09/11 08:38:23;;;;;;;0.20;0.20;;;;;;;;;;7372763;19;20158;-74
2022/09/11 08:40:48;;;;;;;0.30;0.30;;;;;;;;;;7385463;19;20145;-74
2022/09/11 08:43:32;;;;;;;0.30;0.30;;;;;;;;;;7384372;19;20536;-75
2022/09/11 08:46:03;;;;;;;0.30;0.30;;;;;;;;;;7382906;19;20117;-75
2022/09/11 08:48:34;;;;;;;0.30;0.30;;;;;;;;;;7380086;19;20113;-74
2022/09/11 08:51:00;;;;;;;0.30;0.30;;;;;;;;;;7380949;19;20192;-73
2022/09/11 08:53:26;;;;;;;0.20;0.20;;;;;;;;;;7374079;19;20133;-75
2022/09/11 08:55:56;;;;;;;0.47;0.47;;;;;;;;;;7380437;19;20165;-75
2022/09/11 08:58:41;;;;;;;0.30;0.30;;;;;;;;;;7382934;19;20105;-75
2022/09/11 09:01:23;;;;;;;0.50;0.50;;;;;;;;;;7382891;19;20121;-75
2022/09/11 09:04:26;;;;;;;0.30;0.30;;;;;;;;;;7380620;19;20692;-75
2022/09/11 09:07:13;;;;;;;0.30;0.30;;;;;;;;;;7382629;19;20646;-75
2022/09/11 09:09:54;;;;;;;0.30;0.30;;;;;;;;;;7387287;19;20136;-73
2022/09/11 09:12:49;;;;;;;5.90;0.75;;;;;;;;;;7381755;19;20181;-75
2022/09/11 09:15:29;;;;;;;0.30;0.30;;;;;;;;;;7387603;19;20110;-75
2022/09/11 09:17:59;;;;;;;0.30;0.30;;;;;;;;;;7383971;19;20591;-75
2022/09/11 09:20:31;;;;;;;0.30;0.30;;;;;;;;;;7385251;19;20121;-75
2022/09/11 09:23:01;;;;;;;0.40;0.40;;;;;;;;;;7386538;19;20631;-75
2022/09/11 09:25:27;;;;;;;0.30;0.30;;;;;;;;;;7384340;19;20150;-75
2022/09/11 09:27:59;;;;;;;0.30;0.30;;;;;;;;;;7382776;19;20117;-75
2022/09/11 09:30:26;;;;;;;0.30;0.30;;;;;;;;;;7381700;19;20502;-75
2022/09/11 09:33:00;;;;;;;0.30;0.30;;;;;;;;;;7376675;19;20133;-75
2022/09/11 09:35:31;;;;;;;0.30;0.30;;;;;;;;;;7378717;19;20141;-75
2022/09/11 09:37:57;;;;;;;0.40;0.40;;;;;;;;;;7378931;19;20113;-75
2022/09/11 09:40:23;;;;;;;0.30;0.30;;;;;;;;;;7384487;19;20125;-75
2022/09/11 09:42:58;;;;;;;0.30;0.30;;;;;;;;;;7377934;19;20573;-73
2022/09/11 09:45:48;;;;;;;0.30;0.30;;;;;;;;;;7377856;19;20115;-75
2022/09/11 09:48:13;;;;;;;0.30;0.30;;;;;;;;;;7384768;19;20462;-75
2022/09/11 09:50:40;;;;;;;0.30;0.30;;;;;;;;;;7380853;19;20121;-73
2022/09/11 09:53:27;;;;;;;0.30;0.30;;;;;;;;;;7381359;19;20161;-74
2022/09/11 09:55:55;;;;;;;0.38;0.38;;;;;;;;;;7384320;19;20125;-72
2022/09/11 09:58:26;;;;;;;0.30;0.30;;;;;;;;;;7383187;19;20144;-73
2022/09/11 10:00:51;;;;;;;0.30;0.30;;;;;;;;;;7382008;19;20121;-72
2022/09/11 10:03:19;;;;;;;0.40;0.40;;;;;;;;;;7375816;19;20153;-72
2022/09/11 10:05:46;;;;;;;0.30;0.30;;;;;;;;;;7382385;19;20113;-71
2022/09/11 10:08:34;;;;;;;0.30;0.30;;;;;;;;;;7379702;19;20181;-71
2022/09/11 10:11:09;;;;;;;0.63;0.63;;;;;;;;;;7384122;19;20129;-72
2022/09/11 10:13:40;;;;;;;0.30;0.30;;;;;;;;;;7370782;19;20730;-76
2022/09/11 10:16:18;;;;;;;0.40;0.40;;;;;;;;;;7381831;19;20601;-75
2022/09/11 10:18:44;;;;;;;0.38;0.38;;;;;;;;;;7382916;19;20197;-75
2022/09/11 10:21:28;;;;;;;0.30;0.30;;;;;;;;;;7380298;19;20105;-74
2022/09/11 10:23:58;;;;;;;0.30;0.30;;;;;;;;;;7381013;19;20128;-75
2022/09/11 10:26:44;;;;;;;0.45;0.45;;;;;;;;;;7382218;19;20169;-74
2022/09/11 10:29:28;;;;;;;1.05;1.05;;;;;;;;;;7381628;19;20135;-75
2022/09/11 10:32:01;;;;;;;0.30;0.30;;;;;;;;;;7379715;19;20105;-72
2022/09/11 10:34:34;;;;;;;0.30;0.30;;;;;;;;;;7378408;19;20132;-76
2022/09/11 10:37:01;;;;;;;0.30;0.30;;;;;;;;;;7384061;19;20117;-75
2022/09/11 10:39:29;;;;;;;0.30;0.30;;;;;;;;;;7380790;19;20132;-76
2022/09/11 10:41:58;;;;;;;0.30;0.30;;;;;;;;;;7380659;19;20188;-75
2022/09/11 10:44:24;;;;;;;0.30;0.30;;;;;;;;;;7382445;19;20125;-75
2022/09/11 10:47:12;;;;;;;0.30;0.30;;;;;;;;;;7381928;19;20729;-76
2022/09/11 10:49:38;;;;;;;1.08;1.00;;;;;;;;;;7378603;19;20168;-74
2022/09/11 10:52:06;;;;;;;0.30;0.30;;;;;;;;;;7376059;19;20150;-74
2022/09/11 10:54:43;;;;;;;0.30;0.30;;;;;;;;;;7378539;19;20129;-76
2022/09/11 10:57:27;;;;;;;0.65;0.65;;;;;;;;;;7382725;19;20133;-76
2022/09/11 11:00:13;;;;;;;0.30;0.30;;;;;;;;;;7381189;19;20503;-76
2022/09/11 11:02:48;;;;;;;0.30;0.30;;;;;;;;;;7381669;19;20117;-75
2022/09/11 11:05:43;;;;;;;0.20;0.20;;;;;;;;;;7380892;19;20117;-75
2022/09/11 11:08:36;;;;;;;1.85;0.45;;;;;;;;;;7381853;19;20133;-76
2022/09/11 11:11:26;;;;;;;0.30;0.30;;;;;;;;;;7383802;19;20109;-76
2022/09/11 11:14:22;;;;;;;0.30;0.30;;;;;;;;;;7380331;19;20152;-76
2022/09/11 11:17:01;;;;;;;0.30;0.30;;;;;;;;;;7380847;19;20374;-76
2022/09/11 11:20:12;;;;;;;0.40;0.40;;;;;;;;;;7381544;19;20602;-76
2022/09/11 11:22:57;;;;;;;0.30;0.30;;;;;;;;;;7378270;19;20120;-76
2022/09/11 11:25:28;;;;;;;1.17;0.47;;;;;;;;;;7374554;19;20139;-76
2022/09/11 11:28:27;;;;;;;0.75;0.60;;;;;;;;;;7375220;19;20121;-75
2022/09/11 11:31:04;;;;;;;0.40;0.40;;;;;;;;;;7370655;19;20129;-75
2022/09/11 11:33:50;;;;;;;0.43;0.40;;;;;;;;;;7379397;19;20504;-76
2022/09/11 11:36:45;;;;;;;0.30;0.30;;;;;;;;;;7375668;19;20133;-76
2022/09/11 11:39:24;;;;;;;0.43;0.43;;;;;;;;;;7371245;19;20958;-75
2022/09/11 11:42:02;;;;;;;0.40;0.40;;;;;;;;;;7373122;19;20123;-76
2022/09/11 11:44:38;;;;;;;0.30;0.30;;;;;;;;;;7381504;19;20128;-76
2022/09/11 11:47:05;;;;;;;0.20;0.20;;;;;;;;;;7372853;19;20124;-76
2022/09/11 11:50:02;;;;;;;0.30;0.30;;;;;;;;;;7376825;19;20113;-74
2022/09/11 11:52:27;;;;;;;0.30;0.30;;;;;;;;;;7377245;19;20117;-76
2022/09/11 11:55:16;;;;;;;0.20;0.20;;;;;;;;;;7380677;19;20496;-76
2022/09/11 11:57:47;;;;;;;0.38;0.38;;;;;;;;;;7380254;19;20121;-77
2022/09/11 12:00:15;;;;;;;0.50;0.50;;;;;;;;;;7381634;19;20599;-77
2022/09/11 12:02:48;;;;;;;0.30;0.30;;;;;;;;;;7378849;19;20192;-77
2022/09/11 12:05:16;;;;;;;0.30;0.30;;;;;;;;;;7379311;19;20157;-76
2022/09/11 12:07:42;;;;;;;0.30;0.30;;;;;;;;;;7388504;19;20614;-76
2022/09/11 12:10:20;;;;;;;0.30;0.30;;;;;;;;;;7390171;19;20132;-77
2022/09/11 12:12:49;;;;;;;0.30;0.30;;;;;;;;;;7386694;19;20656;-76
2022/09/11 12:15:29;;;;;;;0.30;0.30;;;;;;;;;;7388549;19;20113;-77
2022/09/11 12:18:24;;;;;;;0.30;0.30;;;;;;;;;;7389120;19;20200;-77
2022/09/11 12:20:49;;;;;;;0.40;0.40;;;;;;;;;;7386573;19;20133;-77
2022/09/11 12:23:29;;;;;;;0.32;0.32;;;;;;;;;;7387710;19;20470;-77
2022/09/11 12:26:07;;;;;;;0.30;0.30;;;;;;;;;;7389603;19;20472;-77
2022/09/11 12:28:34;;;;;;;0.30;0.30;;;;;;;;;;7386547;19;20133;-76
2022/09/11 12:31:04;;;;;;;0.30;0.30;;;;;;;;;;7385327;19;20110;-77
2022/09/11 12:33:42;;;;;;;0.30;0.30;;;;;;;;;;7382051;19;20129;-75
2022/09/11 12:36:16;;;;;;;0.47;0.47;;;;;;;;;;7383184;19;20160;-76
2022/09/11 12:38:48;;;;;;;0.40;0.40;;;;;;;;;;7384728;19;20129;-76
2022/09/11 12:41:25;;;;;;;0.30;0.30;;;;;;;;;;7381937;19;20129;-77
2022/09/11 12:43:52;;;;;;;0.40;0.40;;;;;;;;;;7377097;19;20184;-77
2022/09/11 12:46:20;;;;;;;0.50;0.50;;;;;;;;;;7385663;19;20613;-76
2022/09/11 12:48:48;;;;;;;0.30;0.30;;;;;;;;;;7390069;19;20208;-76
2022/09/11 12:51:31;;;;;;;0.30;0.30;;;;;;;;;;7386688;19;20140;-76
2022/09/11 12:54:10;;;;;;;0.30;0.30;;;;;;;;;;7386676;19;20246;-76
2022/09/11 12:56:44;;;;;;;0.40;0.40;;;;;;;;;;7384787;19;20818;-76
2022/09/11 12:59:18;;;;;;;0.30;0.30;;;;;;;;;;7381379;19;20594;-74
2022/09/11 13:01:44;;;;;;;0.32;0.32;;;;;;;;;;7380955;19;20125;-74
2022/09/11 13:04:09;;;;;;;0.30;0.30;;;;;;;;;;7378957;19;20156;-73
2022/09/11 13:06:42;;;;;;;0.40;0.40;;;;;;;;;;7382701;19;20197;-75
2022/09/11 13:09:23;;;;;;;0.40;0.40;;;;;;;;;;7386506;19;20128;-75
2022/09/11 13:11:51;;;;;;;0.60;0.60;;;;;;;;;;7383388;19;20133;-74
2022/09/11 13:14:28;;;;;;;0.40;0.40;;;;;;;;;;7379055;19;20132;-75
2022/09/11 13:16:55;;;;;;;0.50;0.50;;;;;;;;;;7376998;19;20476;-75
2022/09/11 13:19:21;;;;;;;0.50;0.50;;;;;;;;;;7380253;19;20119;-75
2022/09/11 13:21:50;;;;;;;0.50;0.50;;;;;;;;;;7382347;19;20519;-75
2022/09/11 13:24:27;;;;;;;0.50;0.50;;;;;;;;;;7378315;19;20125;-74
2022/09/11 13:26:55;;;;;;;0.40;0.40;;;;;;;;;;7376817;19;20590;-74
2022/09/11 13:29:25;;;;;;;0.40;0.40;;;;;;;;;;7375082;19;20481;-74
2022/09/11 13:31:52;;;;;;;0.38;0.38;;;;;;;;;;7381789;19;20121;-75
2022/09/11 13:34:19;;;;;;;0.82;0.82;;;;;;;;;;7379047;19;20220;-75
2022/09/11 13:36:46;;;;;;;0.40;0.40;;;;;;;;;;7384477;19;20124;-74
2022/09/11 13:39:13;;;;;;;0.40;0.40;;;;;;;;;;7383136;19;20139;-75
2022/09/11 13:41:43;;;;;;;0.57;0.57;;;;;;;;;;7381228;19;20113;-74
2022/09/11 13:44:40;;;;;;;0.40;0.40;;;;;;;;;;7379826;19;20508;-75
2022/09/11 13:47:23;;;;;;;0.38;0.38;;;;;;;;;;7383117;19;20157;-75
2022/09/11 13:49:52;;;;;;;0.47;0.47;;;;;;;;;;7380992;19;20120;-72
2022/09/11 13:52:17;;;;;;;0.40;0.40;;;;;;;;;;7385336;19;20505;-74
2022/09/11 13:54:51;;;;;;;1.75;1.15;;;;;;;;;;7380488;19;20503;-74
2022/09/11 13:57:21;;;;;;;0.40;0.40;;;;;;;;;;7378983;19;20184;-74
2022/09/11 13:59:47;;;;;;;0.32;0.32;;;;;;;;;;7379877;19;21055;-74
2022/09/11 14:02:43;;;;;;;0.30;0.30;;;;;;;;;;7378349;19;20948;-75
2022/09/11 14:05:13;;;;;;;0.30;0.30;;;;;;;;;;7379800;19;20577;-74
2022/09/11 14:07:45;;;;;;;0.30;0.30;;;;;;;;;;7383639;19;20121;-74
2022/09/11 14:10:18;;;;;;;0.47;0.47;;;;;;;;;;7379987;19;20113;-74
2022/09/11 14:12:54;;;;;;;0.40;0.40;;;;;;;;;;7384341;19;20566;-75
2022/09/11 14:15:51;;;;;;;0.30;0.30;;;;;;;;;;7383996;19;20121;-74
2022/09/11 14:18:19;;;;;;;0.30;0.30;;;;;;;;;;7382587;19;20201;-75
2022/09/11 14:20:45;;;;;;;0.30;0.30;;;;;;;;;;7383826;19;20125;-75
2022/09/11 14:23:18;;;;;;;0.30;0.30;;;;;;;;;;7381740;19;20959;-74
2022/09/11 14:26:06;;;;;;;0.30;0.30;;;;;;;;;;7380120;19;20114;-75
2022/09/11 14:28:47;;;;;;;0.30;0.30;;;;;;;;;;7378447;19;20650;-75
2022/09/11 14:31:45;;;;;;;0.30;0.30;;;;;;;;;;7377929;19;20184;-74
2022/09/11 14:34:17;;;;;;;0.30;0.30;;;;;;;;;;7379072;19;20184;-74
2022/09/11 14:36:45;;;;;;;0.68;0.52;;;;;;;;;;7382381;19;20667;-75
2022/09/11 14:39:23;;;;;;;0.20;0.20;;;;;;;;;;7381135;19;20151;-73
2022/09/11 14:41:48;;;;;;;0.30;0.30;;;;;;;;;;7382794;19;20109;-74
2022/09/11 14:44:15;;;;;;;0.45;0.45;;;;;;;;;;7382859;19;20181;-74
2022/09/11 14:46:40;;;;;;;0.40;0.40;;;;;;;;;;7381790;19;20125;-74
2022/09/11 14:49:08;;;;;;;0.43;0.43;;;;;;;;;;7380025;19;20488;-74
2022/09/11 14:51:36;;;;;;;0.30;0.30;;;;;;;;;;7383299;19;20128;-74
2022/09/11 14:54:03;;;;;;;0.30;0.30;;;;;;;;;;7379147;19;20149;-74
2022/09/11 14:56:29;;;;;;;0.30;0.30;;;;;;;;;;7382613;19;20643;-75
2022/09/11 14:58:54;;;;;;;0.30;0.30;;;;;;;;;;7379526;19;20114;-72
2022/09/11 15:01:19;;;;;;;0.30;0.30;;;;;;;;;;7375987;19;20518;-74
2022/09/11 15:03:45;;;;;;;0.30;0.30;;;;;;;;;;7376915;19;20278;-75
2022/09/11 15:06:15;;;;;;;0.30;0.30;;;;;;;;;;7378171;19;20125;-74
2022/09/11 15:08:41;;;;;;;0.30;0.30;;;;;;;;;;7380901;19;20619;-74
2022/09/11 15:11:06;;;;;;;0.40;0.40;;;;;;;;;;7382355;19;20120;-73
2022/09/11 15:13:31;;;;;;;0.30;0.30;;;;;;;;;;7382747;19;20151;-75
2022/09/11 15:15:57;;;;;;;0.30;0.30;;;;;;;;;;7383824;19;20106;-74
2022/09/11 15:18:22;;;;;;;0.30;0.30;;;;;;;;;;7381302;19;20137;-74
2022/09/11 15:20:48;;;;;;;0.30;0.30;;;;;;;;;;7384218;19;20488;-74
2022/09/11 15:23:15;;;;;;;0.30;0.30;;;;;;;;;;7381029;19;20604;-74
2022/09/11 15:25:41;;;;;;;0.55;0.55;;;;;;;;;;7379094;19;20121;-74
2022/09/11 15:28:08;;;;;;;0.30;0.30;;;;;;;;;;7373141;19;20481;-72
2022/09/11 15:30:35;;;;;;;0.30;0.30;;;;;;;;;;7376711;19;20395;-74
2022/09/11 15:33:01;;;;;;;0.30;0.30;;;;;;;;;;7378884;19;20208;-72
2022/09/11 15:35:26;;;;;;;0.40;0.40;;;;;;;;;;7382428;19;20501;-75
2022/09/11 15:37:52;;;;;;;0.30;0.30;;;;;;;;;;7381820;19;20119;-74
2022/09/11 15:40:18;;;;;;;0.30;0.30;;;;;;;;;;7380724;19;20214;-74
2022/09/11 15:42:43;;;;;;;0.30;0.30;;;;;;;;;;7380169;19;20121;-73
2022/09/11 15:45:09;;;;;;;0.30;0.30;;;;;;;;;;7379098;19;20120;-74
2022/09/11 15:47:35;;;;;;;0.30;0.30;;;;;;;;;;7380460;19;20486;-73
2022/09/11 15:50:00;;;;;;;0.30;0.30;;;;;;;;;;7378975;19;20131;-74
2022/09/11 15:52:26;;;;;;;0.32;0.32;;;;;;;;;;7379301;19;20599;-74
2022/09/11 15:54:51;;;;;;;0.30;0.30;;;;;;;;;;7379085;19;20138;-73
2022/09/11 15:57:17;;;;;;;0.30;0.30;;;;;;;;;;7380978;19;20538;-74
2022/09/11 15:59:42;;;;;;;0.30;0.30;;;;;;;;;;7379990;19;20420;-74
2022/09/11 16:02:10;;;;;;;0.30;0.30;;;;;;;;;;7381227;19;20464;-74
2022/09/11 16:04:35;;;;;;;0.30;0.30;;;;;;;;;;7379402;19;20171;-73
2022/09/11 16:07:00;;;;;;;0.30;0.30;;;;;;;;;;7379222;19;20125;-73
2022/09/11 16:09:28;;;;;;;0.32;0.32;;;;;;;;;;7377574;19;20110;-73
2022/09/11 16:11:54;;;;;;;0.30;0.30;;;;;;;;;;7380205;19;20587;-74
2022/09/11 16:14:31;;;;;;;0.30;0.30;;;;;;;;;;7377639;19;20159;-74
2022/09/11 16:16:57;;;;;;;0.30;0.30;;;;;;;;;;7380763;19;20685;-74
2022/09/11 16:19:27;;;;;;;0.30;0.30;;;;;;;;;;7378353;19;20129;-74
2022/09/11 16:21:55;;;;;;;0.38;0.38;;;;;;;;;;7381494;19;20587;-73
2022/09/11 16:24:24;;;;;;;0.30;0.30;;;;;;;;;;7376317;19;20130;-74
2022/09/11 16:26:53;;;;;;;0.30;0.30;;;;;;;;;;7380554;19;20116;-74
2022/09/11 16:29:19;;;;;;;0.30;0.30;;;;;;;;;;7377354;19;20125;-74
2022/09/11 16:31:44;;;;;;;0.30;0.30;;;;;;;;;;7379617;19;20524;-74
2022/09/11 16:34:11;;;;;;;0.30;0.30;;;;;;;;;;7375606;19;20161;-72
2022/09/11 16:36:39;;;;;;;0.30;0.30;;;;;;;;;;7379777;19;20220;-74
2022/09/11 16:39:10;;;;;;;0.30;0.30;;;;;;;;;;7378721;19;20121;-73
2022/09/11 16:41:38;;;;;;;0.30;0.30;;;;;;;;;;7371353;19;20128;-73
2022/09/11 16:44:05;;;;;;;0.30;0.30;;;;;;;;;;7373472;19;20738;-74
2022/09/11 16:46:32;;;;;;;0.30;0.30;;;;;;;;;;7377886;19;20121;-75
2022/09/11 16:48:58;;;;;;;0.30;0.30;;;;;;;;;;7374625;19;20483;-73
2022/09/11 16:51:24;;;;;;;0.30;0.30;;;;;;;;;;7381574;19;20105;-71
2022/09/11 16:53:50;;;;;;;0.30;0.30;;;;;;;;;;7386773;19;20153;-73
2022/09/11 16:56:17;;;;;;;0.38;0.38;;;;;;;;;;7388422;19;20138;-75